• Join FlightAware (Why Join?)
  • Login
  • US Flag 
10:03PM EDT


 

Airport Tracker/Info


-or-


 

Live Flight TrackerFlight Track Log ✈ TCF5993 ✈ 07-Apr-2013 ✈ KBGR - KLGA

Flight Track Log - Related Links

Times and Time Zones

All times are in EDT time to prevent confusion due to time zone crossing. See the TCF5993 flight status page for this flight to view local times or setup timezone preferences in your user account.

Time Position Orientation Groundspeed Altitude Reporting Facility
EDT Latitude Longitude Course Direction KTS MPH feet Rate Location/Type
05:11PM 44.7456 -68.8008 244° Southwest 223 257 5,000  Level Boston Center
05:12PM 44.7169 -68.8817 244° Southwest 233 268 8,700 3,240 Climbing Boston Center
05:13PM 44.6822 -68.9714 241° Southwest 238 274 11,500 2,400 Climbing Boston Center
05:14PM 44.5410 -69.4750 240° Southwest  Level FlightAware Approximate
05:14PM 44.6494 -69.0667 244° Southwest 250 288 14,000  Level Boston Center
05:15PM 44.4985 -69.5855 244° Southwest  Level FlightAware Approximate
05:15PM 44.6031 -69.1861 241° Southwest 274 315 17,000  Level Boston Center
05:16PM 44.4591 -69.6983 244° Southwest  Level FlightAware Approximate
05:16PM 44.5642 -69.2903 242° Southwest 296 341 19,200  Level Boston Center
05:17PM 44.5253 -69.3969 243° Southwest 307 353 21,800 2,400 Climbing Boston Center
05:18PM 44.4825 -69.5100 242° Southwest 318 366 24,100 2,220 Climbing Boston Center
05:19PM 44.4356 -69.6344 242° Southwest 323 372 26,300 2,100 Climbing Boston Center
05:20PM 44.3906 -69.7556 243° Southwest 339 390 28,300 1,800 Climbing Boston Center
05:21PM 44.3453 -69.8739 242° Southwest 345 397 29,900 1,380 Climbing Boston Center
05:22PM 44.3097 -69.9711 243° Southwest 352 405 31,200 1,740 Climbing Boston Center
05:23PM 44.2544 -70.1156 242° Southwest 358 412 33,500 1,380 Climbing Boston Center
05:24PM 44.2108 -70.2272 241° Southwest 352 405 34,000 240 Climbing Boston Center
05:25PM 44.1672 -70.3389 241° Southwest 341 392 34,000  Level Boston Center
05:26PM 44.1253 -70.4503 242° Southwest 335 386 34,000  Level Boston Center
05:27PM 44.0814 -70.5617 241° Southwest 335 386 34,000  Level Boston Center
05:28PM 44.0353 -70.6756 241° Southwest 335 386 34,000  Level Boston Center
05:29PM 43.9911 -70.7894 242° Southwest 335 386 34,000  Level Boston Center
05:30PM 43.9528 -70.8886 242° Southwest 335 386 34,000  Level Boston Center
05:31PM 43.9086 -70.9992 241° Southwest 335 386 34,000  Level Boston Center
05:32PM 43.8661 -71.1097 242° Southwest 329 379 34,000  Level Boston Center
05:33PM 43.8194 -71.2231 240° Southwest 329 379 34,000  Level Boston Center
05:34PM 43.7767 -71.3331 242° Southwest 329 379 34,000  Level Boston Center
05:35PM 43.7339 -71.4403 241° Southwest 329 379 34,000  Level Boston Center
05:36PM 43.6850 -71.5617 241° Southwest 329 379 34,000  Level Boston Center
05:37PM 43.6419 -71.6742 242° Southwest 329 379 34,000  Level Boston Center
05:38PM 43.6011 -71.7808 242° Southwest 329 379 34,000  Level Boston Center
05:39PM 43.5558 -71.8900 240° Southwest 329 379 34,000  Level Boston Center
05:40PM 43.5125 -71.9936 240° Southwest 329 379 34,000  Level Boston Center
05:41PM 43.4669 -72.1025 240° Southwest 329 379 34,000 -120 Level Boston Center
05:42PM 43.4256 -72.2086 242° Southwest 329 379 33,800 -720 Descending Boston Center
05:43PM 43.3756 -72.3258 240° Southwest 334 384 32,600 -1,200 Descending Boston Center
05:44PM 43.3278 -72.4400 240° Southwest 340 391 31,400 -1,320 Descending Boston Center
05:45PM 43.2797 -72.5600 241° Southwest 346 398 30,100 -1,320 Descending Boston Center
05:46PM 43.2339 -72.6739 241° Southwest 351 404 28,900 -1,080 Descending Boston Center
05:47PM 43.1878 -72.7761 238° Southwest 356 410 28,000 -480 Descending Boston Center
05:48PM 43.1353 -72.8981 239° Southwest 350 403 28,000  Level Boston Center
05:49PM 43.0950 -73.0003 242° Southwest 345 397 28,000  Level Boston Center
05:50PM 43.0467 -73.1161 240° Southwest 345 397 28,000  Level Boston Center
05:51PM 42.9978 -73.2292 239° Southwest 350 403 28,000  Level Boston Center
05:52PM 42.9492 -73.3419 240° Southwest 355 409 28,000 -180 Level Boston Center
05:53PM 42.8919 -73.4658 238° Southwest 355 409 27,700 -600 Descending Boston Center
05:54PM 42.8428 -73.5925 242° Southwest 355 409 26,700 -1,260 Descending Boston Center
05:55PM 42.7956 -73.7019 240° Southwest 350 403 25,200 -1,800 Descending Boston Center
05:56PM 42.7114 -73.7822 215° Southwest 344 396 23,100 -1,680 Descending Boston Center
05:57PM 42.6322 -73.7861 182° South 318 366 22,000 -600 Descending Boston Center
05:58PM 42.5428 -73.7644 170° South 329 379 22,000 -840 Level Boston Center
05:59PM 42.4264 -73.7394 171° South 342 394 20,300 -1,500 Descending Boston Center
06:00PM 42.3161 -73.7147 171° South 354 407 19,000 -600 Descending Boston Center
06:01PM 42.2289 -73.6989 172° South 354 407 19,000  Level Boston Center
06:02PM 42.1122 -73.6742 171° South 354 407 19,000  Level Boston Center
06:03PM 42.0064 -73.6528 171° South 354 407 19,000  Level Boston Center
06:04PM 41.9086 -73.6311 171° South 354 407 19,000 -540 Level Boston Center
06:06PM 41.8106 -73.6378 183° South 347 399 18,000 -1,320 Descending Boston Center
06:06PM 41.7247 -73.6667 194° South 337 388 16,400 -1,620 Descending Boston Center
06:07PM 41.6472 -73.6958 196° South 332 382 14,900 -1,680 Descending Boston Center
06:09PM 41.5553 -73.7300 196° South 317 365 13,100 -1,740 Descending Boston Center
06:10PM 41.4500 -73.7667 195° South 298 343 11,000 -1,620 Descending New York TRACON
06:11PM 41.3833 -73.7833 191° South 267 307 9,500 -1,500 Descending New York TRACON
06:12PM 41.3000 -73.7667 171° South 292 336 8,000 -1,560 Descending New York TRACON
06:13PM 41.2333 -73.7000 143° Southeast 282 325 6,400 -1,740 Descending New York TRACON
06:14PM 41.1667 -73.6833 169° South 257 296 4,600 -1,200 Descending New York TRACON
06:15PM 41.1000 -73.6667 169° South 248 285 4,000 -300 Descending New York TRACON
06:16PM 41.0333 -73.6667 180° South 237 273 4,000  Level New York TRACON
06:17PM 40.9833 -73.7167 217° Southwest 221 254 4,000 -240 Level New York TRACON
06:18PM 40.9333 -73.7500 207° Southwest 184 212 3,600 -720 Descending New York TRACON
06:19PM 40.9000 -73.7833 217° Southwest 159 183 2,600 -900 Descending New York TRACON
06:20PM 40.8667 -73.8167 217° Southwest 154 177 1,800 -840 Descending New York TRACON